Terminal Aerodrome Forecast
Issued by NWS

Home | Current Version | Previous Version | Text Only | Print | Product List | Glossary Off
Versions: 1 2 3 4 5 6 7 8 9 10 11 12 13 14 15 16 17

368
FTUS43 KPAH 262036 AAC
TAFCGI
TAF AMD
KCGI 262036Z 2621/2718 VRB04KT P6SM SCT050 BKN250
     FM270900 00000KT 4SM BR BKN150
     FM271300 14003KT P6SM BKN150=

USA.gov is the U.S. government's official web portal to all federal, state and local government web resources and services.